createdAt,value
2022-08-08T00:02:03.843Z,44.59
2022-08-08T00:04:49.141Z,44.52
2022-08-08T00:07:48.171Z,44.52
2022-08-08T00:10:29.882Z,44.74
2022-08-08T00:13:20.998Z,45.03
2022-08-08T00:16:16.534Z,45.11
2022-08-08T00:18:48.233Z,45.37
2022-08-08T00:21:26.720Z,45.75
2022-08-08T00:24:11.772Z,45.48
2022-08-08T00:26:50.383Z,45.71
2022-08-08T00:29:44.139Z,46.06
2022-08-08T00:33:02.049Z,46.24
2022-08-08T00:35:37.347Z,46.36
2022-08-08T00:38:31.303Z,46.32
2022-08-08T00:41:55.565Z,47.03
2022-08-08T00:44:52.857Z,47.31
2022-08-08T00:48:04.944Z,47.10
2022-08-08T00:51:02.305Z,47.54
2022-08-08T00:53:43.418Z,47.53
2022-08-08T00:57:04.213Z,47.54
2022-08-08T00:59:59.427Z,47.74
2022-08-08T01:03:57.632Z,47.84
2022-08-08T01:06:27.001Z,47.63
2022-08-08T01:09:36.117Z,47.94
2022-08-08T01:12:47.302Z,47.85
2022-08-08T01:15:44.292Z,47.90
2022-08-08T01:18:53.523Z,48.07
2022-08-08T01:22:07.523Z,48.25
2022-08-08T01:24:54.172Z,48.45
2022-08-08T01:27:46.109Z,48.58
2022-08-08T01:31:00.534Z,48.53
2022-08-08T01:34:00.889Z,48.70
2022-08-08T01:37:01.862Z,48.99
2022-08-08T01:39:53.581Z,49.41
2022-08-08T01:42:36.231Z,49.68
2022-08-08T01:45:41.298Z,49.73
2022-08-08T01:48:34.124Z,50.32
2022-08-08T01:51:48.645Z,50.13
2022-08-08T01:55:25.863Z,50.50
2022-08-08T01:58:11.756Z,50.50
2022-08-08T02:01:15.772Z,50.69
2022-08-08T02:04:00.510Z,50.78
2022-08-08T02:06:57.190Z,51.02
2022-08-08T02:10:01.592Z,51.23
2022-08-08T02:12:50.555Z,51.31
2022-08-08T02:15:38.853Z,51.69
2022-08-08T02:18:27.212Z,51.80
2022-08-08T02:21:36.394Z,52.11
2022-08-08T02:24:19.864Z,52.24
2022-08-08T02:27:12.913Z,52.40
2022-08-08T02:30:05.943Z,52.91
2022-08-08T02:33:21.409Z,53.26
2022-08-08T02:36:16.308Z,53.54
2022-08-08T02:39:01.050Z,54.09
2022-08-08T02:41:59.048Z,54.79
2022-08-08T02:45:18.474Z,54.59
2022-08-08T02:48:14.744Z,55.32
2022-08-08T02:51:05.357Z,55.77
2022-08-08T02:54:00.652Z,56.03
2022-08-08T02:56:52.420Z,56.10
2022-08-08T03:00:01.645Z,56.22
2022-08-08T03:05:00.697Z,56.39
2022-08-08T03:06:46.146Z,56.96
2022-08-08T03:09:41.487Z,57.14
2022-08-08T03:12:36.702Z,57.31
2022-08-08T03:15:56.483Z,57.46
2022-08-08T03:18:46.544Z,57.59
2022-08-08T03:21:26.968Z,57.60
2022-08-08T03:24:11.775Z,58.17
2022-08-08T03:27:05.297Z,57.84
2022-08-08T03:29:54.809Z,57.97
2022-08-08T03:32:56.918Z,58.15
2022-08-08T03:35:38.698Z,58.15
2022-08-08T03:38:57.989Z,58.66
2022-08-08T03:41:08.873Z,58.49
2022-08-08T03:43:59.582Z,58.25
2022-08-08T03:46:50.403Z,57.99
2022-08-08T03:50:01.196Z,58.31
2022-08-08T03:52:19.395Z,58.07
2022-08-08T03:55:09.793Z,58.46
2022-08-08T03:58:29.911Z,58.82
2022-08-08T04:01:02.275Z,58.77
2022-08-08T04:03:57.899Z,58.81
2022-08-08T04:06:39.499Z,59.10
2022-08-08T04:09:16.779Z,58.53
2022-08-08T04:12:00.433Z,58.36
2022-08-08T04:14:47.297Z,58.54
2022-08-08T04:17:58.336Z,58.52
2022-08-08T04:20:14.989Z,58.61
2022-08-08T04:22:51.588Z,58.65
2022-08-08T04:25:27.978Z,58.72
2022-08-08T04:28:35.037Z,58.70
2022-08-08T04:30:58.978Z,58.30
2022-08-08T04:33:38.646Z,58.04
2022-08-08T04:36:14.150Z,58.11
2022-08-08T04:38:46.011Z,57.97
2022-08-08T04:41:21.294Z,57.83
2022-08-08T04:43:57.202Z,57.65
2022-08-08T04:46:31.125Z,57.46
2022-08-08T04:49:03.727Z,57.34
2022-08-08T04:51:54.806Z,56.91
2022-08-08T04:54:40.178Z,56.82
2022-08-08T04:57:15.114Z,56.56
2022-08-08T04:59:47.608Z,56.54
2022-08-08T05:02:20.088Z,56.13
2022-08-08T05:04:55.545Z,55.95
2022-08-08T05:07:38.005Z,55.54
2022-08-08T05:10:16.347Z,55.00
2022-08-08T05:13:01.589Z,54.75
2022-08-08T05:16:51.150Z,54.43
2022-08-08T05:18:27.966Z,54.37
2022-08-08T05:21:00.602Z,53.56
2022-08-08T05:23:41.186Z,52.95
2022-08-08T05:26:19.745Z,52.05
2022-08-08T05:28:57.211Z,51.58
2022-08-08T05:32:03.444Z,51.11
2022-08-08T05:34:47.659Z,51.27
2022-08-08T05:37:39.017Z,50.93
2022-08-08T05:40:21.611Z,51.01
2022-08-08T05:43:38.629Z,50.12
2022-08-08T05:46:07.716Z,48.46
2022-08-08T05:48:43.733Z,48.08
2022-08-08T05:51:25.943Z,47.73
2022-08-08T05:54:28.036Z,46.79
2022-08-08T05:56:53.259Z,45.67
2022-08-08T05:59:59.390Z,45.17
2022-08-08T06:02:52.985Z,44.18
2022-08-08T06:05:35.460Z,43.82
2022-08-08T06:08:33.564Z,43.06
2022-08-08T06:11:10.993Z,42.19
2022-08-08T06:13:50.941Z,41.88
2022-08-08T06:16:30.377Z,41.24
2022-08-08T06:19:25.573Z,41.26
2022-08-08T06:21:59.463Z,40.63
2022-08-08T06:24:40.219Z,40.43
2022-08-08T06:27:35.961Z,39.26
2022-08-08T06:30:26.049Z,38.58
2022-08-08T06:33:01.035Z,37.16
2022-08-08T06:36:07.567Z,36.76
2022-08-08T06:38:31.904Z,35.88
2022-08-08T06:41:08.378Z,36.01
2022-08-08T06:43:57.129Z,35.85
2022-08-08T06:46:33.464Z,35.59
2022-08-08T06:49:06.405Z,35.33
2022-08-08T06:51:52.453Z,35.07
2022-08-08T06:54:32.559Z,34.68
2022-08-08T06:57:05.386Z,34.25
2022-08-08T07:00:02.605Z,33.77
2022-08-08T07:02:36.324Z,33.16
2022-08-08T07:05:20.648Z,32.09
2022-08-08T07:08:09.231Z,32.34
2022-08-08T07:10:52.021Z,32.36
2022-08-08T07:13:28.982Z,32.24
2022-08-08T07:16:11.743Z,32.11
2022-08-08T07:19:07.961Z,32.30
2022-08-08T07:21:59.156Z,31.82
2022-08-08T07:24:44.819Z,31.25
2022-08-08T07:27:35.481Z,29.05
2022-08-08T07:30:21.335Z,28.64
2022-08-08T07:33:01.343Z,27.73
2022-08-08T07:35:37.079Z,28.51
2022-08-08T07:38:20.321Z,29.07
2022-08-08T07:41:06.707Z,28.27
2022-08-08T07:43:43.033Z,27.92
2022-08-08T07:46:30.486Z,28.14
2022-08-08T07:49:09.848Z,28.01
2022-08-08T07:51:44.661Z,28.99
2022-08-08T07:54:33.291Z,28.00
2022-08-08T07:57:36.083Z,28.45
2022-08-08T08:00:16.790Z,29.31
2022-08-08T08:03:20.879Z,27.94
2022-08-08T08:05:58.748Z,26.92
2022-08-08T08:08:50.215Z,27.34
2022-08-08T08:11:38.101Z,28.15
2022-08-08T08:14:35.136Z,27.69
2022-08-08T08:17:09.768Z,27.69
2022-08-08T08:19:46.208Z,27.74
2022-08-08T08:22:31.467Z,27.38
2022-08-08T08:25:07.748Z,27.13
2022-08-08T08:27:47.017Z,27.13
2022-08-08T08:30:19.739Z,27.30
2022-08-08T08:32:52.253Z,27.49
2022-08-08T08:35:29.925Z,27.82
2022-08-08T08:38:20.878Z,27.97
2022-08-08T08:41:06.149Z,26.77
2022-08-08T08:43:52.133Z,26.14
2022-08-08T08:46:26.114Z,25.70
2022-08-08T08:48:59.284Z,26.89
2022-08-08T08:51:31.956Z,25.87
2022-08-08T08:54:08.056Z,26.27
2022-08-08T08:56:42.379Z,25.50
2022-08-08T08:59:58.695Z,26.10
2022-08-08T09:02:21.798Z,25.67
2022-08-08T09:04:59.382Z,25.34
2022-08-08T09:07:39.356Z,25.12
2022-08-08T09:10:28.999Z,25.81
2022-08-08T09:13:02.662Z,25.36
2022-08-08T09:15:41.024Z,25.12
2022-08-08T09:18:18.751Z,25.36
2022-08-08T09:21:57.303Z,24.74
2022-08-08T09:23:46.533Z,26.34
2022-08-08T09:26:32.518Z,26.17
2022-08-08T09:29:37.035Z,26.46
2022-08-08T09:32:38.403Z,26.33
2022-08-08T09:35:20.703Z,26.43
2022-08-08T09:38:05.664Z,26.01
2022-08-08T09:40:51.311Z,26.35
2022-08-08T09:44:05.155Z,26.60
2022-08-08T09:46:25.805Z,26.19
2022-08-08T09:49:18.544Z,26.15
2022-08-08T09:52:01.814Z,24.90
2022-08-08T09:54:44.700Z,25.34
2022-08-08T09:57:45.668Z,24.90
2022-08-08T10:00:49.768Z,24.48
2022-08-08T10:03:19.818Z,23.41
2022-08-08T10:05:52.131Z,24.09
2022-08-08T10:08:23.825Z,23.61
2022-08-08T10:10:58.721Z,23.59
2022-08-08T10:13:36.123Z,23.64
2022-08-08T10:16:13.702Z,23.72
2022-08-08T10:18:46.373Z,23.64
2022-08-08T10:21:26.237Z,24.30
2022-08-08T10:24:11.992Z,24.85
2022-08-08T10:27:05.582Z,25.33
2022-08-08T10:30:00.074Z,25.43
2022-08-08T10:32:34.410Z,25.44
2022-08-08T10:36:06.622Z,24.94
2022-08-08T10:38:15.151Z,25.28
2022-08-08T10:40:53.298Z,24.44
2022-08-08T10:43:36.529Z,24.61
2022-08-08T10:46:29.576Z,24.13
2022-08-08T10:49:01.854Z,24.99
2022-08-08T10:51:47.259Z,23.68
2022-08-08T10:54:25.090Z,23.53
2022-08-08T10:57:00.286Z,24.38
2022-08-08T10:59:39.730Z,23.77
2022-08-08T11:02:12.684Z,23.62
2022-08-08T11:04:53.672Z,23.25
2022-08-08T11:08:30.044Z,22.61
2022-08-08T11:10:28.819Z,22.82
2022-08-08T11:13:28.814Z,23.23
2022-08-08T11:16:00.820Z,24.14
2022-08-08T11:18:39.968Z,23.90
2022-08-08T11:21:19.550Z,25.14
2022-08-08T11:24:01.638Z,25.33
2022-08-08T11:26:56.311Z,25.35
2022-08-08T11:29:50.800Z,25.42
2022-08-08T11:32:29.462Z,24.96
2022-08-08T11:35:25.975Z,24.99
2022-08-08T11:38:38.692Z,24.50
2022-08-08T11:40:55.880Z,23.71
2022-08-08T11:43:38.596Z,24.10
2022-08-08T11:46:17.873Z,24.77
2022-08-08T11:48:50.839Z,24.85
2022-08-08T11:51:38.438Z,24.87
2022-08-08T11:54:31.529Z,23.54
2022-08-08T11:57:27.362Z,24.29
2022-08-08T12:00:05.325Z,24.24
2022-08-08T12:02:57.586Z,24.73
2022-08-08T12:05:34.546Z,24.87
2022-08-08T12:08:07.723Z,24.51
2022-08-08T12:10:48.938Z,24.48
2022-08-08T12:13:37.603Z,25.23
2022-08-08T12:16:19.862Z,26.18
2022-08-08T12:18:53.817Z,25.62
2022-08-08T12:21:59.197Z,25.24
2022-08-08T12:24:27.700Z,25.03
2022-08-08T12:27:00.279Z,25.68
2022-08-08T12:29:41.856Z,25.30
2022-08-08T12:32:19.821Z,25.31
2022-08-08T12:35:04.419Z,25.46
2022-08-08T12:37:48.167Z,25.51
2022-08-08T12:40:56.891Z,25.02
2022-08-08T12:43:49.715Z,25.47
2022-08-08T12:46:28.959Z,25.43
2022-08-08T12:52:00.058Z,25.93
2022-08-08T12:54:36.679Z,25.31
2022-08-08T12:57:24.190Z,25.65
2022-08-08T13:00:05.053Z,26.16
2022-08-08T13:02:51.504Z,25.50
2022-08-08T13:05:27.117Z,25.78
2022-08-08T13:08:19.779Z,26.18
2022-08-08T13:10:56.751Z,26.20
2022-08-08T13:13:37.061Z,26.66
2022-08-08T13:16:25.534Z,25.76
2022-08-08T13:19:09.203Z,25.72
2022-08-08T13:21:53.251Z,25.85
2022-08-08T13:24:48.550Z,25.63
2022-08-08T13:27:29.968Z,26.19
2022-08-08T13:30:08.740Z,26.49
2022-08-08T13:32:42.197Z,26.66
2022-08-08T13:35:25.018Z,26.67
2022-08-08T13:38:08.508Z,27.17
2022-08-08T13:40:45.860Z,26.87
2022-08-08T13:43:18.667Z,26.31
2022-08-08T13:45:52.695Z,26.24
2022-08-08T13:48:26.189Z,26.89
2022-08-08T13:51:33.518Z,26.58
2022-08-08T13:54:00.013Z,26.88
2022-08-08T13:56:53.597Z,26.90
2022-08-08T13:59:39.230Z,26.34
2022-08-08T14:02:14.653Z,27.61
2022-08-08T14:05:21.755Z,26.46
2022-08-08T14:07:59.407Z,26.30
2022-08-08T14:10:37.495Z,26.29
2022-08-08T14:13:30.404Z,26.34
2022-08-08T14:16:15.860Z,26.31
2022-08-08T14:19:00.582Z,26.06
2022-08-08T14:21:52.266Z,26.67
2022-08-08T14:24:33.346Z,26.40
2022-08-08T14:27:18.817Z,26.50
2022-08-08T14:30:17.114Z,26.63
2022-08-08T14:32:53.255Z,25.83
2022-08-08T14:35:35.123Z,25.05
2022-08-08T14:38:33.919Z,25.28
2022-08-08T14:41:45.276Z,25.15
2022-08-08T14:44:19.582Z,25.70
2022-08-08T14:47:01.428Z,25.53
2022-08-08T14:49:51.518Z,25.45
2022-08-08T14:52:26.429Z,25.18
2022-08-08T14:54:59.082Z,25.12
2022-08-08T14:58:06.495Z,24.91
2022-08-08T15:00:23.798Z,24.81
2022-08-08T15:03:14.242Z,24.51
2022-08-08T15:05:54.712Z,24.95
2022-08-08T15:08:33.525Z,25.14
2022-08-08T15:11:11.686Z,25.04
2022-08-08T15:14:01.657Z,24.86
2022-08-08T15:16:35.110Z,24.64
2022-08-08T15:19:07.131Z,24.25
2022-08-08T15:21:42.838Z,24.73
2022-08-08T15:24:15.892Z,25.00
2022-08-08T15:26:53.125Z,25.22
2022-08-08T15:29:25.601Z,25.22
2022-08-08T15:32:18.985Z,25.16
2022-08-08T15:34:49.626Z,25.29
2022-08-08T15:37:21.721Z,25.41
2022-08-08T15:39:54.009Z,25.55
2022-08-08T15:42:41.517Z,25.66
2022-08-08T15:45:13.233Z,25.78
2022-08-08T15:48:05.270Z,25.89
2022-08-08T15:50:56.549Z,26.22
2022-08-08T15:53:33.174Z,26.38
2022-08-08T15:56:13.150Z,25.98
2022-08-08T15:58:48.237Z,26.33
2022-08-08T16:01:21.008Z,26.41
2022-08-08T16:03:54.212Z,26.87
2022-08-08T16:06:28.368Z,26.53
2022-08-08T16:13:02.147Z,26.22
2022-08-08T16:13:03.182Z,26.50
2022-08-08T16:14:52.663Z,25.95
2022-08-08T16:17:38.739Z,26.28
2022-08-08T16:20:17.521Z,26.46
2022-08-08T16:22:52.176Z,26.34
2022-08-08T16:25:45.689Z,26.23
2022-08-08T16:28:22.704Z,26.24
2022-08-08T16:31:07.978Z,26.32
2022-08-08T16:33:41.205Z,26.38
2022-08-08T16:36:27.978Z,26.79
2022-08-08T16:39:17.062Z,27.01
2022-08-08T16:42:01.000Z,26.99
2022-08-08T16:44:34.479Z,26.95
2022-08-08T16:47:40.382Z,26.87
2022-08-08T16:50:16.664Z,27.03
2022-08-08T16:55:03.233Z,27.06
2022-08-08T16:55:55.736Z,26.82
2022-08-08T16:58:32.586Z,27.38
2022-08-08T17:01:10.936Z,27.59
2022-08-08T17:03:58.711Z,27.74
2022-08-08T17:06:36.797Z,27.34
2022-08-08T17:09:15.095Z,27.31
2022-08-08T17:11:49.218Z,27.28
2022-08-08T17:14:27.623Z,27.61
2022-08-08T17:17:23.051Z,27.83
2022-08-08T17:19:59.676Z,27.66
2022-08-08T17:22:39.393Z,27.80
2022-08-08T17:25:14.229Z,27.80
2022-08-08T17:27:49.779Z,28.13
2022-08-08T17:30:29.104Z,27.91
2022-08-08T17:34:36.683Z,28.31
2022-08-08T17:36:10.017Z,28.39
2022-08-08T17:38:43.072Z,28.52
2022-08-08T17:41:15.597Z,28.59
2022-08-08T17:44:00.921Z,28.79
2022-08-08T17:46:42.742Z,28.47
2022-08-08T17:49:23.985Z,28.88
2022-08-08T17:51:56.603Z,28.83
2022-08-08T17:54:29.051Z,28.97
2022-08-08T17:57:03.510Z,29.31
2022-08-08T17:59:45.612Z,28.82
2022-08-08T18:02:21.305Z,29.17
2022-08-08T18:04:55.218Z,29.33
2022-08-08T18:08:03.375Z,29.59
2022-08-08T18:10:31.767Z,30.02
2022-08-08T18:13:07.476Z,29.69
2022-08-08T18:15:40.713Z,29.59
2022-08-08T18:18:28.616Z,29.63
2022-08-08T18:21:10.446Z,29.75
2022-08-08T18:23:55.848Z,29.94
2022-08-08T18:26:28.937Z,30.16
2022-08-08T18:29:01.607Z,30.35
2022-08-08T18:31:33.374Z,30.38
2022-08-08T18:34:25.674Z,30.60
2022-08-08T18:36:57.512Z,30.99
2022-08-08T18:39:29.420Z,31.09
2022-08-08T18:42:03.663Z,31.40
2022-08-08T18:44:36.206Z,31.34
2022-08-08T18:47:07.948Z,30.96
2022-08-08T18:49:41.162Z,31.32
2022-08-08T18:52:33.925Z,31.37
2022-08-08T18:55:10.292Z,31.24
2022-08-08T18:57:44.893Z,31.14
2022-08-08T19:00:20.221Z,31.54
2022-08-08T19:03:04.226Z,31.57
2022-08-08T19:05:45.105Z,32.08
2022-08-08T19:08:25.644Z,32.02
2022-08-08T19:11:02.164Z,31.86
2022-08-08T19:13:47.284Z,32.35
2022-08-08T19:16:28.473Z,32.22
2022-08-08T19:19:12.352Z,32.76
2022-08-08T19:21:49.490Z,32.71
2022-08-08T19:24:42.776Z,32.50
2022-08-08T19:27:14.914Z,32.69
2022-08-08T19:29:46.707Z,32.66
2022-08-08T19:32:25.457Z,32.77
2022-08-08T19:34:57.157Z,32.97
2022-08-08T19:37:43.543Z,33.08
2022-08-08T19:40:21.967Z,33.25
2022-08-08T19:43:02.870Z,33.62
2022-08-08T19:45:59.397Z,33.37
2022-08-08T19:48:33.504Z,33.32
2022-08-08T19:51:05.230Z,33.91
2022-08-08T19:53:53.501Z,33.96
2022-08-08T19:56:40.247Z,34.04
2022-08-08T19:59:13.111Z,34.28
2022-08-08T20:02:01.006Z,34.42
2022-08-08T20:04:34.071Z,34.45
2022-08-08T20:08:27.917Z,34.86
2022-08-08T20:10:00.702Z,35.29
2022-08-08T20:12:35.397Z,35.06
2022-08-08T20:15:16.780Z,34.96
2022-08-08T20:17:48.914Z,35.00
2022-08-08T20:20:22.195Z,35.64
2022-08-08T20:22:56.968Z,35.99
2022-08-08T20:25:30.067Z,36.19
2022-08-08T20:28:07.882Z,36.36
2022-08-08T20:30:55.938Z,36.02
2022-08-08T20:34:27.719Z,36.34
2022-08-08T20:36:23.077Z,37.06
2022-08-08T20:38:59.439Z,36.99
2022-08-08T20:41:35.303Z,37.30
2022-08-08T20:44:07.306Z,37.14
2022-08-08T20:46:40.700Z,37.25
2022-08-08T20:49:21.868Z,37.58
2022-08-08T20:51:53.602Z,37.53
2022-08-08T20:54:28.251Z,37.60
2022-08-08T20:57:04.045Z,37.83
2022-08-08T20:59:48.738Z,37.96
2022-08-08T21:02:25.747Z,37.76
2022-08-08T21:05:01.178Z,37.83
2022-08-08T21:08:33.635Z,38.56
2022-08-08T21:10:28.449Z,38.37
2022-08-08T21:13:01.568Z,38.86
2022-08-08T21:16:05.650Z,39.19
2022-08-08T21:18:28.184Z,39.40
2022-08-08T21:21:00.203Z,39.52
2022-08-08T21:23:58.983Z,39.36
2022-08-08T21:26:27.299Z,40.00
2022-08-08T21:29:00.557Z,39.78
2022-08-08T21:31:58.700Z,39.80
2022-08-08T21:34:24.040Z,39.88
2022-08-08T21:37:11.472Z,39.99
2022-08-08T21:39:56.651Z,40.22
2022-08-08T21:42:28.812Z,40.10
2022-08-08T21:45:20.814Z,39.90
2022-08-08T21:48:06.451Z,40.08
2022-08-08T21:50:43.596Z,40.15
2022-08-08T21:54:22.798Z,40.40
2022-08-08T21:56:20.043Z,40.36
2022-08-08T21:59:01.630Z,40.49
2022-08-08T22:01:40.616Z,40.68
2022-08-08T22:04:13.173Z,40.87
2022-08-08T22:06:47.074Z,41.24
2022-08-08T22:09:18.937Z,41.47
2022-08-08T22:12:04.516Z,42.09
2022-08-08T22:14:42.759Z,41.96
2022-08-08T22:17:17.104Z,42.19
2022-08-08T22:20:12.399Z,42.27
2022-08-08T22:22:40.770Z,42.36
2022-08-08T22:25:24.802Z,42.70
2022-08-08T22:28:02.498Z,43.10
2022-08-08T22:30:36.477Z,43.07
2022-08-08T22:34:10.895Z,43.13
2022-08-08T22:36:12.479Z,43.72
2022-08-08T22:38:48.250Z,43.48
2022-08-08T22:41:23.331Z,43.84
2022-08-08T22:44:02.731Z,44.18
2022-08-08T22:46:39.013Z,44.03
2022-08-08T22:49:11.591Z,43.86
2022-08-08T22:51:49.582Z,44.36
2022-08-08T22:54:30.101Z,44.26
2022-08-08T22:57:17.958Z,44.82
2022-08-08T22:59:59.281Z,45.14
2022-08-08T23:02:32.005Z,44.83
2022-08-08T23:05:07.600Z,44.71
2022-08-08T23:07:51.644Z,45.04
2022-08-08T23:10:29.580Z,45.13
2022-08-08T23:13:01.221Z,45.63
2022-08-08T23:16:41.522Z,45.46
2022-08-08T23:18:28.465Z,45.62
2022-08-08T23:21:04.517Z,45.72
2022-08-08T23:23:48.396Z,46.06
2022-08-08T23:26:20.529Z,45.92
2022-08-08T23:28:54.834Z,45.93
2022-08-08T23:31:26.439Z,46.55
2022-08-08T23:34:16.474Z,46.27
2022-08-08T23:36:57.927Z,46.58
2022-08-08T23:39:41.490Z,46.76
2022-08-08T23:42:13.928Z,46.85
2022-08-08T23:44:47.992Z,46.91
2022-08-08T23:48:59.645Z,47.25
2022-08-08T23:50:29.835Z,47.11
2022-08-08T23:53:03.689Z,47.27
2022-08-08T23:55:42.089Z,47.26
2022-08-08T23:58:31.880Z,47.34
